sensor_id;sensor_type;location;lat;lon;timestamp;P1;durP1;ratioP1;P2;durP2;ratioP2
19032;SDS011;9649;51.042;13.804;2023-02-27T00:02:10;4.40;;;1.90;;
19032;SDS011;9649;51.042;13.804;2023-02-27T00:07:13;5.53;;;1.90;;
19032;SDS011;9649;51.042;13.804;2023-02-27T00:12:16;6.93;;;2.17;;
19032;SDS011;9649;51.042;13.804;2023-02-27T00:17:20;2.97;;;1.90;;
19032;SDS011;9649;51.042;13.804;2023-02-27T00:22:25;6.80;;;1.97;;
19032;SDS011;9649;51.042;13.804;2023-02-27T00:27:28;4.77;;;1.83;;
19032;SDS011;9649;51.042;13.804;2023-02-27T00:32:34;6.73;;;2.10;;
19032;SDS011;9649;51.042;13.804;2023-02-27T00:37:37;5.30;;;2.20;;
19032;SDS011;9649;51.042;13.804;2023-02-27T00:42:40;3.17;;;1.60;;
19032;SDS011;9649;51.042;13.804;2023-02-27T00:47:44;5.93;;;2.40;;
19032;SDS011;9649;51.042;13.804;2023-02-27T00:52:47;3.33;;;1.73;;
19032;SDS011;9649;51.042;13.804;2023-02-27T00:57:50;5.03;;;2.70;;
19032;SDS011;9649;51.042;13.804;2023-02-27T01:02:54;3.83;;;2.30;;
19032;SDS011;9649;51.042;13.804;2023-02-27T01:07:57;6.73;;;2.23;;
19032;SDS011;9649;51.042;13.804;2023-02-27T01:12:59;4.77;;;2.23;;
19032;SDS011;9649;51.042;13.804;2023-02-27T01:18:03;5.53;;;2.30;;
19032;SDS011;9649;51.042;13.804;2023-02-27T01:23:06;8.30;;;3.10;;
19032;SDS011;9649;51.042;13.804;2023-02-27T01:28:09;6.80;;;2.70;;
19032;SDS011;9649;51.042;13.804;2023-02-27T01:33:13;4.83;;;2.30;;
19032;SDS011;9649;51.042;13.804;2023-02-27T01:38:16;4.97;;;2.10;;
19032;SDS011;9649;51.042;13.804;2023-02-27T01:43:19;5.30;;;2.37;;
19032;SDS011;9649;51.042;13.804;2023-02-27T01:48:25;5.87;;;2.50;;
19032;SDS011;9649;51.042;13.804;2023-02-27T01:53:30;5.93;;;2.53;;
19032;SDS011;9649;51.042;13.804;2023-02-27T01:58:35;5.53;;;2.43;;
19032;SDS011;9649;51.042;13.804;2023-02-27T02:03:41;4.47;;;2.17;;
19032;SDS011;9649;51.042;13.804;2023-02-27T02:08:48;2.80;;;1.80;;
19032;SDS011;9649;51.042;13.804;2023-02-27T02:13:54;4.10;;;1.90;;
19032;SDS011;9649;51.042;13.804;2023-02-27T02:19:01;4.50;;;1.90;;
19032;SDS011;9649;51.042;13.804;2023-02-27T02:24:39;6.23;;;2.13;;
19032;SDS011;9649;51.042;13.804;2023-02-27T02:30:15;8.17;;;2.57;;
19032;SDS011;9649;51.042;13.804;2023-02-27T02:41:27;5.67;;;2.43;;
19032;SDS011;9649;51.042;13.804;2023-02-27T02:46:38;5.07;;;2.37;;
19032;SDS011;9649;51.042;13.804;2023-02-27T02:51:49;5.17;;;3.00;;
19032;SDS011;9649;51.042;13.804;2023-02-27T02:56:59;7.87;;;3.20;;
19032;SDS011;9649;51.042;13.804;2023-02-27T03:02:06;11.17;;;3.23;;
19032;SDS011;9649;51.042;13.804;2023-02-27T03:07:12;6.03;;;3.10;;
19032;SDS011;9649;51.042;13.804;2023-02-27T03:12:22;7.97;;;3.10;;
19032;SDS011;9649;51.042;13.804;2023-02-27T03:17:29;6.87;;;3.47;;
19032;SDS011;9649;51.042;13.804;2023-02-27T03:22:41;6.17;;;3.10;;
19032;SDS011;9649;51.042;13.804;2023-02-27T03:27:51;5.50;;;2.87;;
19032;SDS011;9649;51.042;13.804;2023-02-27T03:32:59;6.60;;;2.70;;
19032;SDS011;9649;51.042;13.804;2023-02-27T03:38:07;9.33;;;2.73;;
19032;SDS011;9649;51.042;13.804;2023-02-27T03:43:23;4.83;;;2.40;;
19032;SDS011;9649;51.042;13.804;2023-02-27T03:48:31;3.73;;;2.30;;
19032;SDS011;9649;51.042;13.804;2023-02-27T03:53:36;8.67;;;2.63;;
19032;SDS011;9649;51.042;13.804;2023-02-27T03:58:44;5.60;;;2.50;;
19032;SDS011;9649;51.042;13.804;2023-02-27T04:03:48;10.47;;;2.73;;
19032;SDS011;9649;51.042;13.804;2023-02-27T04:08:57;5.63;;;2.57;;
19032;SDS011;9649;51.042;13.804;2023-02-27T04:14:12;6.50;;;2.57;;
19032;SDS011;9649;51.042;13.804;2023-02-27T04:19:32;8.70;;;2.80;;
19032;SDS011;9649;51.042;13.804;2023-02-27T04:24:45;6.73;;;2.60;;
19032;SDS011;9649;51.042;13.804;2023-02-27T04:29:58;6.20;;;2.53;;
19032;SDS011;9649;51.042;13.804;2023-02-27T04:35:12;7.00;;;2.83;;
19032;SDS011;9649;51.042;13.804;2023-02-27T04:40:18;5.27;;;2.87;;
19032;SDS011;9649;51.042;13.804;2023-02-27T04:45:26;7.00;;;2.90;;
19032;SDS011;9649;51.042;13.804;2023-02-27T04:50:33;5.47;;;2.93;;
19032;SDS011;9649;51.042;13.804;2023-02-27T04:55:38;6.43;;;3.10;;
19032;SDS011;9649;51.042;13.804;2023-02-27T05:00:49;6.50;;;3.10;;
19032;SDS011;9649;51.042;13.804;2023-02-27T05:05:56;4.83;;;2.53;;
19032;SDS011;9649;51.042;13.804;2023-02-27T05:11:02;8.00;;;2.67;;
19032;SDS011;9649;51.042;13.804;2023-02-27T05:16:12;7.10;;;2.77;;
19032;SDS011;9649;51.042;13.804;2023-02-27T05:21:22;6.90;;;2.53;;
19032;SDS011;9649;51.042;13.804;2023-02-27T05:26:31;7.53;;;2.97;;
19032;SDS011;9649;51.042;13.804;2023-02-27T05:31:48;10.13;;;3.90;;
19032;SDS011;9649;51.042;13.804;2023-02-27T05:36:56;5.10;;;2.70;;
19032;SDS011;9649;51.042;13.804;2023-02-27T05:42:02;4.57;;;2.73;;
19032;SDS011;9649;51.042;13.804;2023-02-27T05:47:09;10.50;;;4.57;;
19032;SDS011;9649;51.042;13.804;2023-02-27T05:52:17;10.20;;;4.00;;
19032;SDS011;9649;51.042;13.804;2023-02-27T05:57:26;9.60;;;2.70;;
19032;SDS011;9649;51.042;13.804;2023-02-27T06:02:35;17.80;;;7.27;;
19032;SDS011;9649;51.042;13.804;2023-02-27T06:07:39;11.40;;;3.80;;
19032;SDS011;9649;51.042;13.804;2023-02-27T06:12:42;5.73;;;2.97;;
19032;SDS011;9649;51.042;13.804;2023-02-27T06:17:46;8.83;;;3.17;;
19032;SDS011;9649;51.042;13.804;2023-02-27T06:22:48;6.03;;;3.20;;
19032;SDS011;9649;51.042;13.804;2023-02-27T06:27:51;8.13;;;3.17;;
19032;SDS011;9649;51.042;13.804;2023-02-27T06:32:55;7.20;;;3.70;;
19032;SDS011;9649;51.042;13.804;2023-02-27T06:37:58;8.57;;;4.20;;
19032;SDS011;9649;51.042;13.804;2023-02-27T06:43:01;7.57;;;3.90;;
19032;SDS011;9649;51.042;13.804;2023-02-27T06:48:07;8.47;;;3.20;;
19032;SDS011;9649;51.042;13.804;2023-02-27T06:53:12;9.80;;;3.23;;
19032;SDS011;9649;51.042;13.804;2023-02-27T06:58:15;6.47;;;3.80;;
19032;SDS011;9649;51.042;13.804;2023-02-27T07:03:20;6.87;;;3.67;;
19032;SDS011;9649;51.042;13.804;2023-02-27T07:08:22;5.77;;;3.07;;
19032;SDS011;9649;51.042;13.804;2023-02-27T07:13:25;8.20;;;3.00;;
19032;SDS011;9649;51.042;13.804;2023-02-27T07:18:29;5.93;;;2.97;;
19032;SDS011;9649;51.042;13.804;2023-02-27T07:23:32;5.27;;;2.70;;
19032;SDS011;9649;51.042;13.804;2023-02-27T07:28:35;5.60;;;3.13;;
19032;SDS011;9649;51.042;13.804;2023-02-27T07:33:39;6.73;;;3.50;;
19032;SDS011;9649;51.042;13.804;2023-02-27T07:38:42;7.20;;;3.30;;
19032;SDS011;9649;51.042;13.804;2023-02-27T07:43:44;7.03;;;3.10;;
19032;SDS011;9649;51.042;13.804;2023-02-27T07:48:49;7.20;;;3.50;;
19032;SDS011;9649;51.042;13.804;2023-02-27T07:53:52;8.17;;;3.77;;
19032;SDS011;9649;51.042;13.804;2023-02-27T07:58:56;7.90;;;3.37;;
19032;SDS011;9649;51.042;13.804;2023-02-27T08:04:00;8.63;;;3.10;;
19032;SDS011;9649;51.042;13.804;2023-02-27T08:09:03;9.63;;;3.87;;
19032;SDS011;9649;51.042;13.804;2023-02-27T08:14:07;6.10;;;3.40;;
19032;SDS011;9649;51.042;13.804;2023-02-27T08:19:12;11.87;;;4.40;;
19032;SDS011;9649;51.042;13.804;2023-02-27T08:24:15;9.17;;;4.30;;
19032;SDS011;9649;51.042;13.804;2023-02-27T08:29:18;8.63;;;3.80;;
19032;SDS011;9649;51.042;13.804;2023-02-27T08:34:22;12.33;;;3.83;;
19032;SDS011;9649;51.042;13.804;2023-02-27T08:39:25;6.90;;;3.33;;
19032;SDS011;9649;51.042;13.804;2023-02-27T08:44:28;6.60;;;3.00;;
19032;SDS011;9649;51.042;13.804;2023-02-27T08:49:32;5.33;;;3.00;;
19032;SDS011;9649;51.042;13.804;2023-02-27T08:54:35;9.70;;;3.10;;
19032;SDS011;9649;51.042;13.804;2023-02-27T08:59:38;4.80;;;2.90;;
19032;SDS011;9649;51.042;13.804;2023-02-27T09:04:42;9.93;;;3.13;;
19032;SDS011;9649;51.042;13.804;2023-02-27T09:09:45;5.47;;;2.90;;
19032;SDS011;9649;51.042;13.804;2023-02-27T09:14:50;5.93;;;3.03;;
19032;SDS011;9649;51.042;13.804;2023-02-27T09:19:54;5.37;;;3.10;;
19032;SDS011;9649;51.042;13.804;2023-02-27T09:24:57;6.20;;;3.07;;
19032;SDS011;9649;51.042;13.804;2023-02-27T09:30:00;7.13;;;3.27;;
19032;SDS011;9649;51.042;13.804;2023-02-27T09:35:05;5.50;;;3.07;;
19032;SDS011;9649;51.042;13.804;2023-02-27T09:40:10;5.43;;;2.80;;
19032;SDS011;9649;51.042;13.804;2023-02-27T09:45:24;3.20;;;1.97;;
19032;SDS011;9649;51.042;13.804;2023-02-27T09:50:32;4.03;;;2.40;;
19032;SDS011;9649;51.042;13.804;2023-02-27T09:55:39;3.30;;;2.40;;
19032;SDS011;9649;51.042;13.804;2023-02-27T10:00:44;4.33;;;2.50;;
19032;SDS011;9649;51.042;13.804;2023-02-27T10:06:05;4.97;;;2.23;;
19032;SDS011;9649;51.042;13.804;2023-02-27T10:11:25;4.77;;;2.80;;
19032;SDS011;9649;51.042;13.804;2023-02-27T10:16:37;4.73;;;2.00;;
19032;SDS011;9649;51.042;13.804;2023-02-27T10:21:43;5.27;;;1.70;;
19032;SDS011;9649;51.042;13.804;2023-02-27T10:26:48;3.10;;;1.80;;
19032;SDS011;9649;51.042;13.804;2023-02-27T10:31:55;4.40;;;2.30;;
19032;SDS011;9649;51.042;13.804;2023-02-27T10:37:04;4.50;;;1.97;;
19032;SDS011;9649;51.042;13.804;2023-02-27T10:42:11;4.73;;;1.70;;
19032;SDS011;9649;51.042;13.804;2023-02-27T10:47:16;3.40;;;1.70;;
19032;SDS011;9649;51.042;13.804;2023-02-27T10:52:24;2.57;;;1.40;;
19032;SDS011;9649;51.042;13.804;2023-02-27T10:57:28;2.97;;;1.60;;
19032;SDS011;9649;51.042;13.804;2023-02-27T11:02:34;3.53;;;1.40;;
19032;SDS011;9649;51.042;13.804;2023-02-27T11:07:40;3.17;;;2.00;;
19032;SDS011;9649;51.042;13.804;2023-02-27T11:12:55;3.67;;;2.00;;
19032;SDS011;9649;51.042;13.804;2023-02-27T11:18:17;3.20;;;1.57;;
19032;SDS011;9649;51.042;13.804;2023-02-27T11:23:23;3.00;;;1.40;;
19032;SDS011;9649;51.042;13.804;2023-02-27T11:28:27;2.17;;;1.47;;
19032;SDS011;9649;51.042;13.804;2023-02-27T11:33:33;3.40;;;1.73;;
19032;SDS011;9649;51.042;13.804;2023-02-27T11:38:40;4.43;;;2.10;;
19032;SDS011;9649;51.042;13.804;2023-02-27T11:43:46;5.10;;;1.87;;
19032;SDS011;9649;51.042;13.804;2023-02-27T11:48:51;5.77;;;2.10;;
19032;SDS011;9649;51.042;13.804;2023-02-27T11:54:11;3.53;;;1.80;;
19032;SDS011;9649;51.042;13.804;2023-02-27T11:59:21;5.13;;;1.70;;
19032;SDS011;9649;51.042;13.804;2023-02-27T12:04:32;4.40;;;1.90;;
19032;SDS011;9649;51.042;13.804;2023-02-27T12:09:47;1.97;;;1.10;;
19032;SDS011;9649;51.042;13.804;2023-02-27T12:14:56;1.43;;;1.20;;
19032;SDS011;9649;51.042;13.804;2023-02-27T12:20:17;3.37;;;1.50;;
19032;SDS011;9649;51.042;13.804;2023-02-27T12:25:34;1.83;;;1.03;;
19032;SDS011;9649;51.042;13.804;2023-02-27T12:30:44;1.47;;;0.80;;
19032;SDS011;9649;51.042;13.804;2023-02-27T12:35:52;2.40;;;1.00;;
19032;SDS011;9649;51.042;13.804;2023-02-27T12:41:09;2.80;;;1.10;;
19032;SDS011;9649;51.042;13.804;2023-02-27T12:46:30;2.73;;;0.93;;
19032;SDS011;9649;51.042;13.804;2023-02-27T12:51:42;1.63;;;1.03;;
19032;SDS011;9649;51.042;13.804;2023-02-27T12:56:59;2.77;;;1.30;;
19032;SDS011;9649;51.042;13.804;2023-02-27T13:07:32;3.27;;;1.83;;
19032;SDS011;9649;51.042;13.804;2023-02-27T13:12:40;3.10;;;1.37;;
19032;SDS011;9649;51.042;13.804;2023-02-27T13:17:50;2.33;;;1.10;;
19032;SDS011;9649;51.042;13.804;2023-02-27T13:23:02;1.90;;;1.20;;
19032;SDS011;9649;51.042;13.804;2023-02-27T13:28:15;3.13;;;1.10;;
19032;SDS011;9649;51.042;13.804;2023-02-27T13:33:23;4.05;;;1.30;;
19032;SDS011;9649;51.042;13.804;2023-02-27T13:38:33;1.50;;;1.10;;
19032;SDS011;9649;51.042;13.804;2023-02-27T13:43:45;2.80;;;1.70;;
19032;SDS011;9649;51.042;13.804;2023-02-27T13:48:53;3.80;;;1.57;;
19032;SDS011;9649;51.042;13.804;2023-02-27T13:54:07;2.37;;;1.23;;
19032;SDS011;9649;51.042;13.804;2023-02-27T13:59:30;0.80;;;0.80;;
19032;SDS011;9649;51.042;13.804;2023-02-27T14:04:37;1.23;;;0.70;;
19032;SDS011;9649;51.042;13.804;2023-02-27T14:09:50;0.98;;;0.70;;
19032;SDS011;9649;51.042;13.804;2023-02-27T14:15:05;1.48;;;0.75;;
19032;SDS011;9649;51.042;13.804;2023-02-27T14:20:46;1.05;;;0.70;;
19032;SDS011;9649;51.042;13.804;2023-02-27T14:25:51;1.73;;;0.80;;
19032;SDS011;9649;51.042;13.804;2023-02-27T14:30:57;2.37;;;0.60;;
19032;SDS011;9649;51.042;13.804;2023-02-27T14:36:05;1.93;;;1.00;;
19032;SDS011;9649;51.042;13.804;2023-02-27T14:41:22;0.97;;;0.70;;
19032;SDS011;9649;51.042;13.804;2023-02-27T14:46:38;2.37;;;0.60;;
19032;SDS011;9649;51.042;13.804;2023-02-27T14:51:41;16.17;;;6.23;;
19032;SDS011;9649;51.042;13.804;2023-02-27T14:56:52;3.70;;;2.03;;
19032;SDS011;9649;51.042;13.804;2023-02-27T15:01:57;3.47;;;1.30;;
19032;SDS011;9649;51.042;13.804;2023-02-27T15:07:02;2.33;;;1.40;;
19032;SDS011;9649;51.042;13.804;2023-02-27T15:12:05;3.50;;;1.20;;
19032;SDS011;9649;51.042;13.804;2023-02-27T15:17:15;1.97;;;1.23;;
19032;SDS011;9649;51.042;13.804;2023-02-27T15:22:19;1.90;;;0.80;;
19032;SDS011;9649;51.042;13.804;2023-02-27T15:27:40;3.67;;;1.80;;
19032;SDS011;9649;51.042;13.804;2023-02-27T15:32:44;1.37;;;0.83;;
19032;SDS011;9649;51.042;13.804;2023-02-27T15:37:48;8.33;;;3.90;;
19032;SDS011;9649;51.042;13.804;2023-02-27T15:42:54;2.73;;;1.40;;
19032;SDS011;9649;51.042;13.804;2023-02-27T15:47:58;8.47;;;3.63;;
19032;SDS011;9649;51.042;13.804;2023-02-27T15:53:08;2.60;;;1.60;;
19032;SDS011;9649;51.042;13.804;2023-02-27T15:58:18;7.33;;;3.33;;
19032;SDS011;9649;51.042;13.804;2023-02-27T16:03:26;3.90;;;2.07;;
19032;SDS011;9649;51.042;13.804;2023-02-27T16:08:33;7.87;;;4.27;;
19032;SDS011;9649;51.042;13.804;2023-02-27T16:13:36;4.13;;;2.00;;
19032;SDS011;9649;51.042;13.804;2023-02-27T16:18:44;2.90;;;1.73;;
19032;SDS011;9649;51.042;13.804;2023-02-27T16:23:48;6.57;;;1.53;;
19032;SDS011;9649;51.042;13.804;2023-02-27T16:28:52;3.93;;;1.10;;
19032;SDS011;9649;51.042;13.804;2023-02-27T16:33:59;1.47;;;1.00;;
19032;SDS011;9649;51.042;13.804;2023-02-27T16:39:03;2.50;;;1.50;;
19032;SDS011;9649;51.042;13.804;2023-02-27T16:44:08;2.33;;;1.00;;
19032;SDS011;9649;51.042;13.804;2023-02-27T16:49:18;3.33;;;1.80;;
19032;SDS011;9649;51.042;13.804;2023-02-27T16:54:22;4.40;;;2.10;;
19032;SDS011;9649;51.042;13.804;2023-02-27T16:59:27;3.33;;;1.60;;
19032;SDS011;9649;51.042;13.804;2023-02-27T17:04:32;3.83;;;2.30;;
19032;SDS011;9649;51.042;13.804;2023-02-27T17:09:36;6.63;;;3.07;;
19032;SDS011;9649;51.042;13.804;2023-02-27T17:14:39;5.00;;;2.67;;
19032;SDS011;9649;51.042;13.804;2023-02-27T17:19:43;5.47;;;2.77;;
19032;SDS011;9649;51.042;13.804;2023-02-27T17:24:46;5.07;;;2.10;;
19032;SDS011;9649;51.042;13.804;2023-02-27T17:29:49;5.33;;;2.53;;
19032;SDS011;9649;51.042;13.804;2023-02-27T17:34:53;10.07;;;3.13;;
19032;SDS011;9649;51.042;13.804;2023-02-27T17:39:56;5.73;;;2.43;;
19032;SDS011;9649;51.042;13.804;2023-02-27T17:44:58;8.37;;;2.77;;
19032;SDS011;9649;51.042;13.804;2023-02-27T17:50:07;5.97;;;2.80;;
19032;SDS011;9649;51.042;13.804;2023-02-27T17:55:11;5.00;;;2.90;;
19032;SDS011;9649;51.042;13.804;2023-02-27T18:00:16;5.00;;;2.77;;
19032;SDS011;9649;51.042;13.804;2023-02-27T18:05:20;6.67;;;2.60;;
19032;SDS011;9649;51.042;13.804;2023-02-27T18:10:23;8.77;;;3.80;;
19032;SDS011;9649;51.042;13.804;2023-02-27T18:15:25;10.63;;;4.37;;
19032;SDS011;9649;51.042;13.804;2023-02-27T18:20:30;11.30;;;4.70;;
19032;SDS011;9649;51.042;13.804;2023-02-27T18:25:32;6.20;;;3.53;;
19032;SDS011;9649;51.042;13.804;2023-02-27T18:30:37;8.87;;;3.60;;
19032;SDS011;9649;51.042;13.804;2023-02-27T18:35:42;6.40;;;3.70;;
19032;SDS011;9649;51.042;13.804;2023-02-27T18:40:45;11.07;;;3.40;;
19032;SDS011;9649;51.042;13.804;2023-02-27T18:45:48;9.10;;;3.60;;
19032;SDS011;9649;51.042;13.804;2023-02-27T18:50:53;5.80;;;3.57;;
19032;SDS011;9649;51.042;13.804;2023-02-27T18:56:00;9.30;;;4.20;;
19032;SDS011;9649;51.042;13.804;2023-02-27T19:01:05;9.73;;;4.80;;
19032;SDS011;9649;51.042;13.804;2023-02-27T19:06:14;8.87;;;4.57;;
19032;SDS011;9649;51.042;13.804;2023-02-27T19:40:06;10.30;;;5.10;;
19032;SDS011;9649;51.042;13.804;2023-02-27T19:45:10;9.67;;;4.97;;
19032;SDS011;9649;51.042;13.804;2023-02-27T19:50:13;10.63;;;4.90;;
19032;SDS011;9649;51.042;13.804;2023-02-27T19:55:17;10.93;;;5.50;;
19032;SDS011;9649;51.042;13.804;2023-02-27T20:00:20;12.50;;;5.97;;
19032;SDS011;9649;51.042;13.804;2023-02-27T20:05:24;14.10;;;6.50;;
19032;SDS011;9649;51.042;13.804;2023-02-27T20:15:57;10.33;;;5.90;;
19032;SDS011;9649;51.042;13.804;2023-02-27T20:21:06;9.37;;;5.57;;
19032;SDS011;9649;51.042;13.804;2023-02-27T20:26:37;11.43;;;5.53;;
19032;SDS011;9649;51.042;13.804;2023-02-27T20:31:52;11.90;;;5.63;;
19032;SDS011;9649;51.042;13.804;2023-02-27T21:00:46;12.00;;;5.77;;
19032;SDS011;9649;51.042;13.804;2023-02-27T21:05:49;13.83;;;5.87;;
19032;SDS011;9649;51.042;13.804;2023-02-27T21:10:52;9.43;;;5.60;;
19032;SDS011;9649;51.042;13.804;2023-02-27T21:15:57;13.30;;;5.93;;
19032;SDS011;9649;51.042;13.804;2023-02-27T21:21:02;12.37;;;6.53;;
19032;SDS011;9649;51.042;13.804;2023-02-27T21:26:09;13.50;;;6.50;;
19032;SDS011;9649;51.042;13.804;2023-02-27T21:31:24;16.60;;;7.97;;
19032;SDS011;9649;51.042;13.804;2023-02-27T21:36:32;14.93;;;7.37;;
19032;SDS011;9649;51.042;13.804;2023-02-27T23:25:41;11.63;;;5.80;;
19032;SDS011;9649;51.042;13.804;2023-02-27T23:37:52;9.30;;;4.30;;
